createdAt,value
2017-04-19T00:00:26.343Z,1.9
2017-04-19T00:01:28.689Z,1.8
2017-04-19T00:02:31.027Z,1.8
2017-04-19T00:03:34.171Z,1.8
2017-04-19T00:04:36.510Z,1.8
2017-04-19T00:05:38.909Z,1.8
2017-04-19T00:07:43.656Z,1.8
2017-04-19T00:08:46.751Z,1.8
2017-04-19T00:10:51.491Z,1.8
2017-04-19T00:11:53.824Z,1.8
2017-04-19T00:12:56.671Z,1.8
2017-04-19T00:13:59.273Z,1.8
2017-04-19T00:15:01.618Z,1.8
2017-04-19T00:16:03.959Z,1.7
2017-04-19T00:17:06.299Z,1.8
2017-04-19T00:19:11.798Z,1.7
2017-04-19T00:20:14.003Z,1.8
2017-04-19T00:21:17.270Z,1.7
2017-04-19T00:22:19.107Z,1.7
2017-04-19T00:23:21.452Z,1.7
2017-04-19T00:24:24.544Z,1.8
2017-04-19T00:25:27.456Z,1.8
2017-04-19T00:26:29.030Z,1.8
2017-04-19T00:27:31.748Z,1.7
2017-04-19T00:28:34.320Z,1.7
2017-04-19T00:29:36.829Z,1.6
2017-04-19T00:30:39.175Z,1.6
2017-04-19T00:31:41.382Z,1.6
2017-04-19T00:32:44.237Z,1.6
2017-04-19T00:33:46.578Z,1.6
2017-04-19T00:34:49.729Z,1.6
2017-04-19T00:35:52.628Z,1.6
2017-04-19T00:36:54.460Z,1.6
2017-04-19T00:37:56.805Z,1.6
2017-04-19T00:38:59.147Z,1.6
2017-04-19T00:40:02.244Z,1.6
2017-04-19T00:41:04.587Z,1.6
2017-04-19T00:42:06.929Z,1.6
2017-04-19T00:43:09.271Z,1.6
2017-04-19T00:45:14.772Z,1.5
2017-04-19T00:46:16.981Z,1.5
2017-04-19T00:47:19.317Z,1.5
2017-04-19T00:48:22.729Z,1.5
2017-04-19T00:49:24.564Z,1.5
2017-04-19T00:50:27.014Z,1.5
2017-04-19T00:51:29.273Z,1.5
2017-04-19T00:52:32.113Z,1.5
2017-04-19T00:54:36.858Z,1.5
2017-04-19T00:55:40.007Z,1.4
2017-04-19T00:56:42.348Z,1.4
2017-04-19T00:57:44.558Z,1.4
2017-04-19T00:58:47.278Z,1.3
2017-04-19T00:59:49.621Z,1.3
2017-04-19T01:00:52.272Z,1.3
2017-04-19T01:01:54.647Z,1.3
2017-04-19T01:02:56.992Z,1.3
2017-04-19T01:03:59.837Z,1.3
2017-04-19T01:05:02.177Z,1.3
2017-04-19T01:06:04.915Z,1.3
2017-04-19T01:08:09.673Z,1.2
2017-04-19T01:09:12.381Z,1.1
2017-04-19T01:10:14.719Z,1.1
2017-04-19T01:12:20.133Z,1.1
2017-04-19T01:13:22.479Z,1.1
2017-04-19T01:14:24.824Z,1.1
2017-04-19T01:15:27.163Z,1.1
2017-04-19T01:16:30.009Z,1.1
2017-04-19T01:17:32.646Z,1.1
2017-04-19T01:18:34.983Z,1.1
2017-04-19T01:19:37.190Z,1.1
2017-04-19T01:20:40.031Z,1
2017-04-19T01:21:42.371Z,1.1
2017-04-19T01:22:44.827Z,1
2017-04-19T01:23:47.174Z,1
2017-04-19T01:24:50.018Z,1
2017-04-19T01:25:52.358Z,1
2017-04-19T01:26:54.700Z,1
2017-04-19T01:27:57.713Z,1
2017-04-19T01:29:00.058Z,1
2017-04-19T01:30:02.404Z,1
2017-04-19T01:31:04.749Z,1
2017-04-19T01:32:07.596Z,1
2017-04-19T01:33:10.054Z,1
2017-04-19T01:34:12.396Z,0.9
2017-04-19T01:35:14.739Z,0.8
2017-04-19T01:36:17.580Z,0.8
2017-04-19T01:37:19.652Z,0.8
2017-04-19T01:38:22.749Z,0.8
2017-04-19T01:39:25.092Z,0.8
2017-04-19T01:40:27.435Z,0.8
2017-04-19T01:42:32.543Z,0.8
2017-04-19T01:43:34.997Z,0.8
2017-04-19T01:44:37.340Z,0.8
2017-04-19T01:45:39.783Z,0.8
2017-04-19T01:46:42.631Z,0.8
2017-04-19T01:47:44.975Z,0.8
2017-04-19T01:48:47.618Z,0.8
2017-04-19T01:49:49.825Z,0.7
2017-04-19T01:50:52.531Z,0.8
2017-04-19T01:51:54.736Z,0.8
2017-04-19T01:52:57.619Z,0.7
2017-04-19T01:54:00.210Z,0.7
2017-04-19T01:55:02.546Z,0.7
2017-04-19T01:56:04.884Z,0.7
2017-04-19T01:57:07.735Z,0.8
2017-04-19T01:58:10.081Z,0.7
2017-04-19T01:59:12.719Z,0.8
2017-04-19T02:01:17.457Z,0.7
2017-04-19T02:02:20.166Z,0.7
2017-04-19T02:03:23.071Z,0.8
2017-04-19T02:04:25.164Z,0.8
2017-04-19T02:05:27.505Z,0.8
2017-04-19T02:06:29.842Z,0.8
2017-04-19T02:08:35.087Z,0.8
2017-04-19T02:09:37.728Z,0.8
2017-04-19T02:10:40.065Z,0.8
2017-04-19T02:12:44.805Z,0.7
2017-04-19T02:13:47.646Z,0.8
2017-04-19T02:14:50.241Z,0.7
2017-04-19T02:15:52.448Z,0.8
2017-04-19T02:16:54.786Z,0.7
2017-04-19T02:19:00.027Z,0.7
2017-04-19T02:20:02.665Z,0.7
2017-04-19T02:21:04.877Z,0.6
2017-04-19T02:22:07.951Z,0.6
2017-04-19T02:23:09.853Z,0.6
2017-04-19T02:24:12.696Z,0.6
2017-04-19T02:25:15.339Z,0.6
2017-04-19T02:26:17.680Z,0.6
2017-04-19T02:27:20.018Z,0.6
2017-04-19T02:28:22.359Z,0.6
2017-04-19T02:29:25.208Z,0.6
2017-04-19T02:30:27.859Z,0.6
2017-04-19T02:31:30.198Z,0.6
2017-04-19T02:33:34.811Z,0.8
2017-04-19T02:34:37.652Z,0.7
2017-04-19T02:35:40.348Z,0.8
2017-04-19T02:37:45.089Z,0.7
2017-04-19T02:38:47.499Z,0.7
2017-04-19T02:39:49.836Z,0.6
2017-04-19T02:40:52.981Z,0.6
2017-04-19T02:41:54.817Z,0.6
2017-04-19T02:42:57.661Z,0.7
2017-04-19T02:43:59.997Z,0.6
2017-04-19T02:45:02.339Z,0.6
2017-04-19T02:46:06.044Z,0.6
2017-04-19T02:47:07.239Z,0.6
2017-04-19T02:48:10.078Z,0.6
2017-04-19T02:49:12.418Z,0.6
2017-04-19T02:50:14.810Z,0.6
2017-04-19T02:51:18.115Z,0.6
2017-04-19T02:54:24.756Z,0.6
2017-04-19T02:55:27.596Z,0.6
2017-04-19T02:56:30.238Z,0.6
2017-04-19T02:57:32.440Z,0.6
2017-04-19T02:58:34.776Z,0.6
2017-04-19T02:59:37.683Z,0.6
2017-04-19T03:00:39.890Z,0.6
2017-04-19T03:02:45.264Z,0.6
2017-04-19T03:03:47.611Z,0.6
2017-04-19T03:04:50.030Z,0.6
2017-04-19T03:05:52.431Z,0.6
2017-04-19T03:06:54.770Z,0.6
2017-04-19T03:07:57.916Z,0.6
2017-04-19T03:08:59.756Z,0.6
2017-04-19T03:10:03.159Z,0.6
2017-04-19T03:11:04.872Z,0.7
2017-04-19T03:12:07.218Z,0.6
2017-04-19T03:13:10.369Z,0.7
2017-04-19T03:14:12.072Z,0.6
2017-04-19T03:15:14.946Z,0.6
2017-04-19T03:16:17.287Z,0.6
2017-04-19T03:17:20.128Z,0.6
2017-04-19T03:18:22.585Z,0.7
2017-04-19T03:19:24.954Z,0.6
2017-04-19T03:20:27.294Z,0.7
2017-04-19T03:21:30.135Z,0.6
2017-04-19T03:22:32.344Z,0.6
2017-04-19T03:24:37.844Z,0.7
2017-04-19T03:25:39.680Z,0.7
2017-04-19T03:26:42.518Z,0.7
2017-04-19T03:27:44.862Z,0.7
2017-04-19T03:28:47.197Z,0.7
2017-04-19T03:29:50.338Z,0.7
2017-04-19T03:30:52.733Z,0.7
2017-04-19T03:31:55.069Z,0.8
2017-04-19T03:32:57.444Z,0.8
2017-04-19T03:33:59.902Z,0.7
2017-04-19T03:35:02.545Z,0.8
2017-04-19T03:36:04.887Z,0.6
2017-04-19T03:37:07.222Z,0.7
2017-04-19T03:38:09.939Z,0.7
2017-04-19T03:39:12.277Z,0.7
2017-04-19T03:40:14.917Z,0.7
2017-04-19T03:41:17.126Z,0.7
2017-04-19T03:42:19.839Z,0.7
2017-04-19T03:43:22.547Z,0.7
2017-04-19T03:44:24.888Z,0.8
2017-04-19T03:45:27.479Z,0.7
2017-04-19T03:47:32.220Z,0.8
2017-04-19T03:48:34.927Z,0.8
2017-04-19T03:49:37.287Z,0.8
2017-04-19T03:50:39.737Z,0.7
2017-04-19T03:51:42.074Z,0.7
2017-04-19T03:52:44.781Z,0.8
2017-04-19T03:53:47.122Z,0.8
2017-04-19T03:54:49.966Z,0.8
2017-04-19T03:55:52.603Z,0.8
2017-04-19T03:56:54.809Z,0.8
2017-04-19T03:57:57.146Z,0.8
2017-04-19T03:58:59.994Z,0.8
2017-04-19T04:00:02.335Z,0.8
2017-04-19T04:01:04.907Z,0.8
2017-04-19T04:02:07.249Z,0.8
2017-04-19T04:03:09.680Z,0.7
2017-04-19T04:04:12.527Z,0.7
2017-04-19T04:05:14.866Z,0.7
2017-04-19T04:06:17.372Z,0.7
2017-04-19T04:07:19.707Z,0.7
2017-04-19T04:08:23.111Z,0.7
2017-04-19T04:09:24.947Z,0.8
2017-04-19T04:10:27.285Z,0.7
2017-04-19T04:11:29.880Z,0.8
2017-04-19T04:12:32.224Z,0.8
2017-04-19T04:13:34.565Z,0.8
2017-04-19T04:14:37.408Z,0.8
2017-04-19T04:15:39.743Z,0.8
2017-04-19T04:16:42.805Z,0.8
2017-04-19T04:17:44.642Z,0.8
2017-04-19T04:18:47.480Z,0.8
2017-04-19T04:19:49.815Z,0.8
2017-04-19T04:20:52.214Z,0.8
2017-04-19T04:21:54.804Z,0.8
2017-04-19T04:22:57.140Z,0.8
2017-04-19T04:24:00.015Z,0.8
2017-04-19T04:25:02.359Z,0.8
2017-04-19T04:26:04.700Z,0.8
2017-04-19T04:27:07.287Z,0.8
2017-04-19T04:28:09.622Z,0.8
2017-04-19T04:29:12.329Z,0.8
2017-04-19T04:31:17.074Z,0.8
2017-04-19T04:32:20.168Z,0.8
2017-04-19T04:33:22.004Z,0.8
2017-04-19T04:34:24.848Z,0.8
2017-04-19T04:35:27.185Z,0.8
2017-04-19T04:36:29.524Z,0.8
2017-04-19T04:37:32.624Z,0.8
2017-04-19T04:38:34.962Z,0.8
2017-04-19T04:39:37.300Z,0.8
2017-04-19T04:40:39.633Z,0.8
2017-04-19T04:41:41.970Z,0.8
2017-04-19T04:42:44.927Z,0.9
2017-04-19T04:43:47.273Z,0.8
2017-04-19T04:44:49.940Z,0.8
2017-04-19T04:45:52.281Z,0.8
2017-04-19T04:46:54.619Z,0.8
2017-04-19T04:47:57.262Z,0.8
2017-04-19T04:48:59.601Z,0.8
2017-04-19T04:50:01.952Z,0.8
2017-04-19T04:51:04.798Z,0.8
2017-04-19T04:52:07.137Z,0.8
2017-04-19T04:53:10.287Z,0.8
2017-04-19T04:54:12.118Z,0.9
2017-04-19T04:55:14.881Z,0.9
2017-04-19T04:56:17.085Z,0.9
2017-04-19T04:57:19.423Z,0.9
2017-04-19T04:58:22.520Z,0.9
2017-04-19T05:00:27.268Z,0.9
2017-04-19T05:01:29.668Z,0.9
2017-04-19T05:02:32.007Z,0.9
2017-04-19T05:03:35.100Z,0.9
2017-04-19T05:04:36.938Z,0.9
2017-04-19T05:05:39.776Z,0.9
2017-04-19T05:06:42.114Z,0.8
2017-04-19T05:07:44.453Z,0.9
2017-04-19T05:08:47.543Z,0.9
2017-04-19T05:09:49.378Z,0.9
2017-04-19T05:10:52.220Z,1
2017-04-19T05:11:54.557Z,0.9
2017-04-19T05:12:56.763Z,1
2017-04-19T05:15:02.310Z,1
2017-04-19T05:16:04.646Z,1
2017-04-19T05:17:06.983Z,1
2017-04-19T05:18:09.322Z,1
2017-04-19T05:19:12.158Z,1
2017-04-19T05:20:14.749Z,1
2017-04-19T05:21:17.093Z,1
2017-04-19T05:22:19.432Z,1
2017-04-19T05:23:22.274Z,1
2017-04-19T05:24:24.611Z,1
2017-04-19T05:25:27.197Z,1
2017-04-19T05:26:29.540Z,1
2017-04-19T05:27:31.875Z,1
2017-04-19T05:28:34.720Z,1
2017-04-19T05:29:37.081Z,1.1
2017-04-19T05:30:39.721Z,1.1
2017-04-19T05:31:42.061Z,1.1
2017-04-19T05:33:46.803Z,1.1
2017-04-19T05:34:49.648Z,1.1
2017-04-19T05:35:52.286Z,1.1
2017-04-19T05:36:54.353Z,1.2
2017-04-19T05:37:57.197Z,1.2
2017-04-19T05:38:59.536Z,1.3
2017-04-19T05:40:01.907Z,1.3
2017-04-19T05:42:07.409Z,1.5
2017-04-19T05:43:09.748Z,1.5
2017-04-19T05:44:12.082Z,1.5
2017-04-19T05:45:14.281Z,1.5
2017-04-19T05:46:17.129Z,1.5
2017-04-19T05:47:19.584Z,1.6
2017-04-19T05:48:21.922Z,1.6
2017-04-19T05:49:24.766Z,1.6
2017-04-19T05:50:27.125Z,1.7
2017-04-19T05:51:29.969Z,1.8
2017-04-19T05:52:32.052Z,1.8
2017-04-19T05:53:35.316Z,1.8
2017-04-19T05:54:36.882Z,1.9
2017-04-19T05:55:39.777Z,1.9
2017-04-19T05:56:42.239Z,1.9
2017-04-19T05:57:44.844Z,1.8
2017-04-19T05:58:46.822Z,1.8
2017-04-19T05:59:49.663Z,1.9
2017-04-19T06:00:52.003Z,2
2017-04-19T06:01:54.843Z,2
2017-04-19T06:02:57.429Z,2
2017-04-19T06:03:59.766Z,2.1
2017-04-19T06:05:02.663Z,2.1
2017-04-19T06:06:04.494Z,2.1
2017-04-19T06:07:07.338Z,2.1
2017-04-19T06:08:09.931Z,2
2017-04-19T06:09:12.132Z,2.1
2017-04-19T06:10:14.471Z,2.1
2017-04-19T06:11:17.316Z,2.2
2017-04-19T06:12:19.657Z,2.3
2017-04-19T06:13:22.809Z,2.3
2017-04-19T06:14:24.646Z,2.3
2017-04-19T06:15:27.217Z,2.3
2017-04-19T06:16:29.554Z,2.3
2017-04-19T06:17:32.396Z,2.3
2017-04-19T06:18:35.035Z,2.3
2017-04-19T06:19:37.375Z,2.4
2017-04-19T06:20:39.715Z,2.5
2017-04-19T06:21:42.558Z,2.5
2017-04-19T06:22:44.897Z,2.4
2017-04-19T06:23:47.490Z,2.4
2017-04-19T06:24:49.695Z,2.5
2017-04-19T06:25:53.105Z,2.5
2017-04-19T06:26:54.807Z,2.5
2017-04-19T06:27:57.643Z,2.6
2017-04-19T06:29:00.230Z,2.6
2017-04-19T06:30:02.566Z,2.5
2017-04-19T06:31:05.334Z,2.5
2017-04-19T06:32:07.535Z,2.5
2017-04-19T06:33:09.871Z,2.5
2017-04-19T06:34:12.965Z,2.5
2017-04-19T06:35:14.804Z,2.6
2017-04-19T06:36:17.644Z,2.7
2017-04-19T06:37:19.982Z,2.6
2017-04-19T06:38:22.827Z,2.6
2017-04-19T06:39:25.468Z,2.7
2017-04-19T06:40:27.801Z,2.7
2017-04-19T06:41:30.140Z,2.6
2017-04-19T06:42:32.475Z,2.6
2017-04-19T06:43:35.891Z,2.5
2017-04-19T06:44:38.034Z,2.3
2017-04-19T06:45:40.384Z,2.4
2017-04-19T06:46:42.722Z,2.5
2017-04-19T06:47:45.621Z,2.6
2017-04-19T06:48:47.834Z,2.6
2017-04-19T06:49:50.427Z,2.7
2017-04-19T06:50:52.770Z,2.7
2017-04-19T06:51:55.608Z,2.6
2017-04-19T06:52:57.947Z,2.6
2017-04-19T06:54:00.861Z,2.6
2017-04-19T06:55:02.996Z,2.6
2017-04-19T06:56:05.063Z,2.7
2017-04-19T06:57:07.903Z,2.8
2017-04-19T06:58:10.242Z,2.8
2017-04-19T06:59:13.092Z,2.8
2017-04-19T07:00:15.678Z,2.8
2017-04-19T07:01:18.016Z,2.8
2017-04-19T07:02:20.725Z,2.7
2017-04-19T07:03:23.065Z,2.6
2017-04-19T07:04:25.400Z,2.6
2017-04-19T07:05:28.544Z,2.6
2017-04-19T07:06:30.882Z,2.6
2017-04-19T07:07:33.089Z,2.7
2017-04-19T07:08:35.951Z,2.8
2017-04-19T07:09:38.288Z,2.8
2017-04-19T07:10:40.884Z,2.8
2017-04-19T07:11:43.218Z,2.8
2017-04-19T07:12:45.557Z,2.8
2017-04-19T07:13:48.394Z,2.9
2017-04-19T07:15:53.436Z,2.9
2017-04-19T07:16:55.645Z,3
2017-04-19T07:17:58.486Z,3
2017-04-19T07:19:00.700Z,3
2017-04-19T07:20:03.544Z,2.9
2017-04-19T07:21:06.190Z,3
2017-04-19T07:22:08.531Z,3.1
2017-04-19T07:23:10.866Z,3.1
2017-04-19T07:24:13.706Z,3
2017-04-19T07:25:16.048Z,3
2017-04-19T07:26:18.690Z,3
2017-04-19T07:28:23.480Z,3.1
2017-04-19T07:29:26.322Z,3.1
2017-04-19T07:30:28.661Z,3.2
2017-04-19T07:31:31.300Z,3.2
2017-04-19T07:32:33.502Z,3.1
2017-04-19T07:33:36.204Z,3.2
2017-04-19T07:34:39.603Z,3.2
2017-04-19T07:35:41.714Z,3.1
2017-04-19T07:36:44.280Z,3.1
2017-04-19T07:37:46.620Z,3.1
2017-04-19T07:38:48.960Z,3.2
2017-04-19T07:39:51.163Z,3.3
2017-04-19T07:40:54.000Z,3.3
2017-04-19T07:41:56.589Z,3.3
2017-04-19T07:42:58.795Z,3.3
2017-04-19T07:44:01.635Z,3.3
2017-04-19T07:45:03.844Z,3.3
2017-04-19T07:46:06.716Z,3.4
2017-04-19T07:47:09.372Z,3.4
2017-04-19T07:48:11.709Z,3.4
2017-04-19T07:49:14.050Z,3.5
2017-04-19T07:50:16.760Z,3.6
2017-04-19T07:52:22.334Z,3.6
2017-04-19T07:53:24.179Z,3.6
2017-04-19T07:54:27.022Z,3.5
2017-04-19T07:55:29.362Z,3.4
2017-04-19T07:56:31.701Z,3.4
2017-04-19T07:57:34.710Z,3.5
2017-04-19T07:58:37.043Z,3.5
2017-04-19T07:59:39.248Z,3.4
2017-04-19T08:00:42.091Z,3.3
2017-04-19T08:01:44.429Z,3.3
2017-04-19T08:02:47.437Z,3.2
2017-04-19T08:03:49.783Z,3.1
2017-04-19T08:04:51.985Z,3.1
2017-04-19T08:05:54.553Z,3.1
2017-04-19T08:06:57.395Z,3.1
2017-04-19T08:07:59.767Z,3.1
2017-04-19T08:09:02.067Z,3.2
2017-04-19T08:10:04.908Z,3.3
2017-04-19T08:11:07.249Z,3.5
2017-04-19T08:12:10.087Z,3.5
2017-04-19T08:13:12.731Z,3.6
2017-04-19T08:14:14.935Z,3.7
2017-04-19T08:15:17.863Z,3.8
2017-04-19T08:16:20.203Z,3.9
2017-04-19T08:17:22.406Z,3.9
2017-04-19T08:18:25.502Z,4
2017-04-19T08:19:27.618Z,4.1
2017-04-19T08:20:29.953Z,4.1
2017-04-19T08:21:32.797Z,4.1
2017-04-19T08:22:35.132Z,4
2017-04-19T08:23:38.227Z,4
2017-04-19T08:24:40.436Z,4
2017-04-19T08:25:42.373Z,4
2017-04-19T08:26:45.447Z,3.9
2017-04-19T08:27:47.653Z,3.8
2017-04-19T08:28:50.804Z,3.8
2017-04-19T08:29:53.012Z,3.8
2017-04-19T08:30:55.726Z,3.8
2017-04-19T08:31:57.984Z,3.9
2017-04-19T08:33:00.190Z,3.8
2017-04-19T08:34:03.266Z,3.8
2017-04-19T08:35:05.474Z,3.7
2017-04-19T08:36:08.184Z,3.6
2017-04-19T08:37:10.520Z,3.6
2017-04-19T08:39:16.214Z,3.5
2017-04-19T08:40:18.553Z,3.3
2017-04-19T08:41:20.896Z,3.3
2017-04-19T08:42:23.605Z,3.3
2017-04-19T08:43:25.943Z,3.4
2017-04-19T08:44:28.314Z,3.3
2017-04-19T08:45:31.162Z,3.3
2017-04-19T08:46:33.498Z,3.2
2017-04-19T08:47:35.706Z,3.2
2017-04-19T08:48:38.414Z,3.2
2017-04-19T08:49:41.375Z,3.2
2017-04-19T08:50:43.575Z,3.1
2017-04-19T08:51:46.414Z,3.2
2017-04-19T08:52:48.754Z,3.1
2017-04-19T08:53:51.095Z,3.1
2017-04-19T08:54:54.244Z,3.1
2017-04-19T08:55:56.445Z,3.1
2017-04-19T08:56:58.786Z,3.2
2017-04-19T08:58:01.123Z,3.2
2017-04-19T08:59:03.957Z,3.3
2017-04-19T09:00:06.277Z,3.3
2017-04-19T09:01:08.846Z,3.3
2017-04-19T09:02:11.418Z,3.3
2017-04-19T09:03:13.758Z,3.3
2017-04-19T09:04:16.465Z,3.4
2017-04-19T09:05:19.107Z,3.4
2017-04-19T09:06:21.311Z,3.5
2017-04-19T09:07:24.024Z,3.3
2017-04-19T09:08:26.869Z,3.3
2017-04-19T09:09:29.321Z,3.4
2017-04-19T09:10:31.836Z,3.5
2017-04-19T09:11:34.175Z,3.5
2017-04-19T09:12:36.510Z,3.7
2017-04-19T09:13:39.354Z,3.8
2017-04-19T09:14:41.690Z,4
2017-04-19T09:15:44.794Z,4.1
2017-04-19T09:16:46.635Z,4.1
2017-04-19T09:17:49.406Z,4.1
2017-04-19T09:18:52.169Z,4
2017-04-19T09:19:54.502Z,3.9
2017-04-19T09:20:57.457Z,3.8
2017-04-19T09:21:59.288Z,3.7
2017-04-19T09:23:01.999Z,3.6
2017-04-19T09:24:05.404Z,3.6
2017-04-19T09:25:06.970Z,3.6
2017-04-19T09:26:09.981Z,3.5
2017-04-19T09:27:12.318Z,3.6
2017-04-19T09:28:14.389Z,3.5
2017-04-19T09:29:17.097Z,3.5
2017-04-19T09:30:19.937Z,3.5
2017-04-19T09:31:23.093Z,3.6
2017-04-19T09:32:24.931Z,3.6
2017-04-19T09:33:27.134Z,3.6
2017-04-19T09:34:29.708Z,3.7
2017-04-19T09:35:32.562Z,3.8
2017-04-19T09:36:35.151Z,3.7
2017-04-19T09:37:37.351Z,3.8
2017-04-19T09:38:40.194Z,3.8
2017-04-19T09:39:42.396Z,3.8
2017-04-19T09:40:45.186Z,3.7
2017-04-19T09:41:47.824Z,3.7
2017-04-19T09:42:50.159Z,3.8
2017-04-19T09:43:52.492Z,3.8
2017-04-19T09:44:55.335Z,3.8
2017-04-19T09:45:57.675Z,3.9
2017-04-19T09:47:00.839Z,3.9
2017-04-19T09:48:02.707Z,3.8
2017-04-19T09:49:05.547Z,3.8
2017-04-19T09:50:07.751Z,3.8
2017-04-19T09:51:10.650Z,3.7
2017-04-19T09:52:13.289Z,3.6
2017-04-19T09:53:15.622Z,3.6
2017-04-19T09:55:20.659Z,3.5
2017-04-19T09:56:23.041Z,3.5
2017-04-19T09:57:26.694Z,3.5
2017-04-19T09:58:28.025Z,3.5
2017-04-19T09:59:30.872Z,3.5
2017-04-19T10:00:33.212Z,3.5
2017-04-19T10:01:35.550Z,3.5
2017-04-19T10:02:38.650Z,3.6
2017-04-19T10:03:40.987Z,3.6
2017-04-19T10:04:43.325Z,3.6
2017-04-19T10:05:46.032Z,3.6
2017-04-19T10:06:48.371Z,3.6
2017-04-19T10:07:51.515Z,3.6
2017-04-19T10:08:53.350Z,3.6
2017-04-19T10:09:56.218Z,3.7
2017-04-19T10:10:58.423Z,3.7
2017-04-19T10:12:01.266Z,3.8
2017-04-19T10:13:03.854Z,3.8
2017-04-19T10:14:06.196Z,3.8
2017-04-19T10:15:08.414Z,3.8
2017-04-19T10:16:11.180Z,3.8
2017-04-19T10:17:14.142Z,3.8
2017-04-19T10:18:16.520Z,3.8
2017-04-19T10:19:18.860Z,3.8
2017-04-19T10:21:24.104Z,3.9
2017-04-19T10:22:26.171Z,3.9
2017-04-19T10:23:29.260Z,3.9
2017-04-19T10:24:31.459Z,3.9
2017-04-19T10:25:34.240Z,3.9
2017-04-19T10:26:37.304Z,3.8
2017-04-19T10:27:39.003Z,3.8
2017-04-19T10:28:42.145Z,3.8
2017-04-19T10:29:43.980Z,3.8
2017-04-19T10:30:46.817Z,3.8
2017-04-19T10:31:49.017Z,3.8
2017-04-19T10:32:51.859Z,3.8
2017-04-19T10:33:54.869Z,3.8
2017-04-19T10:34:57.097Z,3.8
2017-04-19T10:36:00.001Z,3.8
2017-04-19T10:37:01.699Z,3.9
2017-04-19T10:38:05.116Z,3.9
2017-04-19T10:39:06.992Z,3.9
2017-04-19T10:40:09.327Z,4
2017-04-19T10:41:11.894Z,4
2017-04-19T10:42:14.771Z,4
2017-04-19T10:43:16.972Z,4
2017-04-19T10:44:20.064Z,4.1
2017-04-19T10:45:22.460Z,4.1
2017-04-19T10:46:24.799Z,4.1
2017-04-19T10:48:30.052Z,4
2017-04-19T10:49:32.637Z,4.1
2017-04-19T10:50:34.970Z,4.1
2017-04-19T10:51:37.682Z,4.1
2017-04-19T10:52:39.883Z,4.1
2017-04-19T10:53:42.723Z,4.1
2017-04-19T10:54:45.308Z,4.1
2017-04-19T10:55:47.544Z,4.1
2017-04-19T10:56:50.393Z,4.1
2017-04-19T10:57:52.735Z,4.1
2017-04-19T10:58:55.071Z,4.1
2017-04-19T10:59:58.074Z,4.1
2017-04-19T11:01:00.161Z,4.1
2017-04-19T11:02:03.007Z,4.1
2017-04-19T11:03:05.208Z,4.2
2017-04-19T11:04:08.611Z,4.2
2017-04-19T11:05:10.610Z,4.3
2017-04-19T11:06:12.815Z,4.4
2017-04-19T11:07:16.217Z,4.5
2017-04-19T11:08:18.052Z,4.4
2017-04-19T11:09:20.254Z,4.3
2017-04-19T11:10:23.346Z,4.3
2017-04-19T11:11:25.428Z,4.3
2017-04-19T11:12:28.691Z,4.1
2017-04-19T11:13:31.028Z,4.1
2017-04-19T11:14:33.938Z,4
2017-04-19T11:15:36.072Z,3.9
2017-04-19T11:16:38.405Z,3.9
2017-04-19T11:17:41.300Z,3.9
2017-04-19T11:18:43.504Z,3.8
2017-04-19T11:19:46.400Z,3.9
2017-04-19T11:20:48.773Z,3.8
2017-04-19T11:21:51.107Z,3.8
2017-04-19T11:22:53.450Z,3.8
2017-04-19T11:24:58.693Z,3.8
2017-04-19T11:26:01.311Z,3.8
2017-04-19T11:27:03.511Z,3.8
2017-04-19T11:28:06.083Z,3.9
2017-04-19T11:29:08.927Z,3.9
2017-04-19T11:30:11.635Z,3.9
2017-04-19T11:31:14.146Z,3.9
2017-04-19T11:32:16.479Z,3.9
2017-04-19T11:34:21.719Z,4
2017-04-19T11:35:23.928Z,4
2017-04-19T11:36:26.888Z,4
2017-04-19T11:37:29.095Z,4
2017-04-19T11:38:31.667Z,4
2017-04-19T11:39:34.013Z,4
2017-04-19T11:40:36.783Z,4.1
2017-04-19T11:41:39.292Z,4.1
2017-04-19T11:42:42.005Z,4.2
2017-04-19T11:43:44.074Z,4.3
2017-04-19T11:44:46.914Z,4.3
2017-04-19T11:45:49.134Z,4.3
2017-04-19T11:46:52.016Z,4.3
2017-04-19T11:47:54.349Z,4.3
2017-04-19T11:48:57.181Z,4.3
2017-04-19T11:49:59.516Z,4.4
2017-04-19T11:51:02.351Z,4.4
2017-04-19T11:52:04.989Z,4.4
2017-04-19T11:53:07.323Z,4.4
2017-04-19T11:54:09.531Z,4.4
2017-04-19T11:55:12.366Z,4.4
2017-04-19T11:56:14.566Z,4.3
2017-04-19T11:57:17.704Z,4.3
2017-04-19T11:58:19.905Z,4.3
2017-04-19T11:59:22.742Z,4.3
2017-04-19T12:01:27.482Z,4.3
2017-04-19T12:02:30.496Z,4.4
2017-04-19T12:03:32.829Z,4.4
2017-04-19T12:04:35.030Z,4.4
2017-04-19T12:05:37.869Z,4.4
2017-04-19T12:06:40.203Z,4.3
2017-04-19T12:07:43.165Z,4.3
2017-04-19T12:08:46.086Z,4.3
2017-04-19T12:09:47.786Z,4.3
2017-04-19T12:10:50.625Z,4.3
2017-04-19T12:11:53.550Z,4.3
2017-04-19T12:12:55.706Z,4.3
2017-04-19T12:13:57.908Z,4.3
2017-04-19T12:15:00.612Z,4.3
2017-04-19T12:16:03.451Z,4.3
2017-04-19T12:17:05.653Z,4.3
2017-04-19T12:18:08.659Z,4.3
2017-04-19T12:19:10.997Z,4.4
2017-04-19T12:20:13.332Z,4.5
2017-04-19T12:21:16.597Z,4.5
2017-04-19T12:22:18.434Z,4.5
2017-04-19T12:23:21.577Z,4.5
2017-04-19T12:24:23.646Z,4.6
2017-04-19T12:25:25.848Z,4.6
2017-04-19T12:26:28.687Z,4.6
2017-04-19T12:27:31.081Z,4.6
2017-04-19T12:28:34.036Z,4.6
2017-04-19T12:29:36.376Z,4.6
2017-04-19T12:30:39.274Z,4.6
2017-04-19T12:31:42.245Z,4.6
2017-04-19T12:32:44.077Z,4.6
2017-04-19T12:33:46.728Z,4.7
2017-04-19T12:34:49.067Z,4.7
2017-04-19T12:35:51.400Z,4.8
2017-04-19T12:36:53.955Z,4.8
2017-04-19T12:37:56.662Z,4.8
2017-04-19T12:38:59.806Z,4.8
2017-04-19T12:40:01.643Z,4.8
2017-04-19T12:41:04.645Z,4.8
2017-04-19T12:42:07.503Z,4.8
2017-04-19T12:43:09.332Z,4.8
2017-04-19T12:44:12.337Z,4.8
2017-04-19T12:45:14.675Z,4.8
2017-04-19T12:47:19.429Z,4.8
2017-04-19T12:48:22.268Z,4.8
2017-04-19T12:49:25.313Z,4.8
2017-04-19T12:50:27.147Z,4.9
2017-04-19T12:51:30.006Z,4.8
2017-04-19T12:52:32.352Z,4.8
2017-04-19T12:53:35.194Z,4.8
2017-04-19T12:54:37.833Z,4.8
2017-04-19T12:56:42.577Z,4.8
2017-04-19T12:57:45.413Z,4.8
2017-04-19T12:58:47.749Z,4.8
2017-04-19T12:59:50.340Z,4.8
2017-04-19T13:00:52.680Z,4.8
2017-04-19T13:01:55.401Z,4.8
2017-04-19T13:02:57.736Z,4.8
2017-04-19T13:04:00.576Z,4.8
2017-04-19T13:05:03.585Z,4.8
2017-04-19T13:06:05.654Z,4.8
2017-04-19T13:07:08.928Z,4.8
2017-04-19T13:08:10.625Z,4.8
2017-04-19T13:09:13.466Z,4.8
2017-04-19T13:10:15.782Z,4.8
2017-04-19T13:11:18.356Z,4.8
2017-04-19T13:12:20.556Z,4.8
2017-04-19T13:13:23.261Z,4.8
2017-04-19T13:14:25.966Z,4.8
2017-04-19T13:15:29.060Z,4.9
2017-04-19T13:16:30.761Z,4.9
2017-04-19T13:17:33.597Z,4.9
2017-04-19T13:18:36.301Z,4.9
2017-04-19T13:19:38.498Z,5
2017-04-19T13:20:41.373Z,5
2017-04-19T13:21:43.574Z,5
2017-04-19T13:23:48.681Z,5
2017-04-19T13:24:51.393Z,5
2017-04-19T13:25:54.404Z,5
2017-04-19T13:27:59.142Z,5.1
2017-04-19T13:29:01.847Z,5.1
2017-04-19T13:30:04.048Z,5.1
2017-04-19T13:31:07.194Z,5.1
2017-04-19T13:32:09.397Z,5.1
2017-04-19T13:33:12.236Z,5.1
2017-04-19T13:34:14.301Z,5.1
2017-04-19T13:35:17.140Z,5.1
2017-04-19T13:36:20.143Z,5.1
2017-04-19T13:37:21.974Z,5.1
2017-04-19T13:38:24.814Z,5
2017-04-19T13:39:27.070Z,5
2017-04-19T13:40:29.790Z,5
2017-04-19T13:41:33.048Z,4.9
2017-04-19T13:42:34.873Z,4.9
2017-04-19T13:43:38.268Z,4.9
2017-04-19T13:44:40.102Z,4.9
2017-04-19T13:45:42.437Z,4.9
2017-04-19T13:46:45.393Z,4.8
2017-04-19T13:47:47.597Z,4.8
2017-04-19T13:48:50.166Z,4.8
2017-04-19T13:49:53.003Z,4.8
2017-04-19T13:50:55.563Z,4.8
2017-04-19T13:51:58.199Z,4.7
2017-04-19T13:53:01.093Z,4.8
2017-04-19T13:54:02.928Z,4.8
2017-04-19T13:55:05.789Z,4.8
2017-04-19T13:56:08.132Z,4.8
2017-04-19T13:57:11.229Z,4.9
2017-04-19T13:58:13.564Z,4.8
2017-04-19T13:59:15.903Z,4.8
2017-04-19T14:00:18.240Z,4.9
2017-04-19T14:01:21.083Z,5
2017-04-19T14:02:23.725Z,5
2017-04-19T14:03:25.790Z,5
2017-04-19T14:04:28.629Z,5.1
2017-04-19T14:05:31.477Z,5.1
2017-04-19T14:06:33.679Z,5.1
2017-04-19T14:07:36.784Z,5.1
2017-04-19T14:08:39.679Z,5.1
2017-04-19T14:09:41.380Z,5.1
2017-04-19T14:10:44.308Z,5.1
2017-04-19T14:12:49.310Z,5
2017-04-19T14:13:51.646Z,5
2017-04-19T14:14:54.353Z,5
2017-04-19T14:15:56.688Z,5
2017-04-19T14:18:02.232Z,5
2017-04-19T14:19:04.567Z,5
2017-04-19T14:20:06.640Z,5
2017-04-19T14:21:09.490Z,5
2017-04-19T14:22:12.193Z,5
2017-04-19T14:23:14.834Z,5
2017-04-19T14:24:17.056Z,5
2017-04-19T14:25:19.993Z,5
2017-04-19T14:26:22.350Z,5
2017-04-19T14:27:24.574Z,5
2017-04-19T14:28:27.666Z,5
2017-04-19T14:29:30.003Z,5
2017-04-19T14:30:32.343Z,5
2017-04-19T14:31:35.184Z,5
2017-04-19T14:32:37.518Z,4.9
2017-04-19T14:33:40.607Z,5
2017-04-19T14:34:43.515Z,5
2017-04-19T14:35:45.214Z,4.9
2017-04-19T14:36:48.054Z,4.9
2017-04-19T14:37:50.395Z,4.8
2017-04-19T14:38:53.488Z,4.8
2017-04-19T14:39:55.319Z,4.7
2017-04-19T14:40:58.160Z,4.7
2017-04-19T14:42:00.497Z,4.7
2017-04-19T14:43:03.205Z,4.7
2017-04-19T14:44:05.843Z,4.7
2017-04-19T14:45:08.177Z,4.8
2017-04-19T14:46:11.015Z,4.7
2017-04-19T14:47:13.351Z,4.7
2017-04-19T14:49:18.897Z,4.8
2017-04-19T14:50:21.231Z,4.9
2017-04-19T14:51:23.567Z,5
2017-04-19T14:52:26.814Z,4.9
2017-04-19T14:53:28.650Z,5
2017-04-19T14:54:32.352Z,5
2017-04-19T14:55:33.680Z,5.1
2017-04-19T14:56:36.518Z,5.1
2017-04-19T14:57:38.857Z,5.1
2017-04-19T14:58:41.697Z,5
2017-04-19T14:59:44.334Z,5
2017-04-19T15:00:46.671Z,5
2017-04-19T15:01:48.873Z,5.1
2017-04-19T15:02:51.580Z,5.1
2017-04-19T15:03:54.419Z,5.1
2017-04-19T15:04:57.015Z,5.1
2017-04-19T15:05:59.355Z,5
2017-04-19T15:07:02.192Z,5
2017-04-19T15:08:04.527Z,4.9
2017-04-19T15:09:06.864Z,4.8
2017-04-19T15:11:12.357Z,4.8